HESN 230700Z 03003KT CAVOK 33/06 Q1011 NOSIG
From batch tds/metars/production/2022/9/23/h07_m55_metars.cache.csv.gz
Observed at (9 days ago)
Identifier HESN
talk